Time,TemperatureF,DewpointF,PressureIn,WindDirection,WindDirectionDegrees,WindSpeedMPH,WindSpeedGustMPH,Humidity,HourlyPrecipIn,Conditions,Clouds,dailyrainin,SoftwareType,DateUTC
2013-04-05 00:00:00,44.3,25.9,30.02,WNW,297,3.0,3.0,48,0.00,,,0.00,VWS V12.07,2013-04-05 05:00:00,
2013-04-05 00:30:00,44.3,25.9,30.03,WNW,297,3.0,3.0,48,0.00,,,0.00,VWS V12.07,2013-04-05 05:30:00,
2013-04-05 00:45:00,44.3,25.9,30.04,WNW,297,3.0,3.0,48,0.00,,,0.00,VWS V12.07,2013-04-05 05:45:00,
2013-04-05 01:00:00,44.3,25.9,30.03,WNW,297,3.0,3.0,48,0.00,,,0.00,VWS V12.07,2013-04-05 06:00:00,
2013-04-05 01:15:00,44.3,25.9,30.04,WNW,297,3.0,3.0,48,0.00,,,0.00,VWS V12.07,2013-04-05 06:15:00,
2013-04-05 01:30:00,44.3,25.9,30.04,WNW,297,3.0,3.0,48,0.00,,,0.00,VWS V12.07,2013-04-05 06:30:00,
2013-04-05 01:45:00,44.3,25.9,30.04,WNW,297,3.0,3.0,48,0.00,,,0.00,VWS V12.07,2013-04-05 06:45:00,
2013-04-05 02:00:00,44.3,25.9,30.04,WNW,297,3.0,3.0,48,0.00,,,0.00,VWS V12.07,2013-04-05 07:00:00,
2013-04-05 02:15:00,44.3,25.9,30.04,WNW,297,3.0,3.0,48,0.00,,,0.00,VWS V12.07,2013-04-05 07:15:00,
2013-04-05 02:30:00,44.3,25.9,30.05,WNW,297,3.0,3.0,48,0.00,,,0.00,VWS V12.07,2013-04-05 07:30:00,
2013-04-05 02:45:00,44.3,25.9,30.05,WNW,297,3.0,3.0,48,0.00,,,0.00,VWS V12.07,2013-04-05 07:45:00,
2013-04-05 03:00:00,44.3,25.9,30.05,WNW,297,3.0,3.0,48,0.00,,,0.00,VWS V12.07,2013-04-05 08:00:00,
2013-04-05 03:15:00,44.3,25.9,30.06,WNW,297,3.0,3.0,48,0.00,,,0.00,VWS V12.07,2013-04-05 08:15:00,
2013-04-05 03:30:00,44.3,25.9,30.06,WNW,297,3.0,3.0,48,0.00,,,0.00,VWS V12.07,2013-04-05 08:30:00,
2013-04-05 03:45:00,44.3,25.9,30.06,WNW,297,3.0,3.0,48,0.00,,,0.00,VWS V12.07,2013-04-05 08:45:00,
2013-04-05 04:00:00,44.3,25.9,30.07,WNW,297,3.0,3.0,48,0.00,,,0.00,VWS V12.07,2013-04-05 09:00:00,
2013-04-05 04:15:00,44.3,25.9,30.07,WNW,297,3.0,3.0,48,0.00,,,0.00,VWS V12.07,2013-04-05 09:15:00,
2013-04-05 04:30:00,44.3,25.9,30.08,WNW,297,3.0,3.0,48,0.00,,,0.00,VWS V12.07,2013-04-05 09:30:00,
2013-04-05 04:45:00,44.3,25.9,30.09,WNW,297,3.0,3.0,48,0.00,,,0.00,VWS V12.07,2013-04-05 09:45:00,
2013-04-05 05:00:00,44.3,25.9,30.09,WNW,297,3.0,3.0,48,0.00,,,0.00,VWS V12.07,2013-04-05 10:00:00,
2013-04-05 05:30:00,44.3,25.9,30.11,WNW,297,3.0,3.0,48,0.00,,,0.00,VWS V12.07,2013-04-05 10:30:00,
2013-04-05 05:45:00,44.3,25.9,30.11,WNW,297,3.0,3.0,48,0.00,,,0.00,VWS V12.07,2013-04-05 10:45:00,
2013-04-05 06:00:00,44.3,25.9,30.11,WNW,297,3.0,3.0,48,0.00,,,0.00,VWS V12.07,2013-04-05 11:00:00,
2013-04-05 06:30:00,44.3,25.9,30.12,WNW,297,3.0,3.0,48,0.00,,,0.00,VWS V12.07,2013-04-05 11:30:00,
2013-04-05 06:45:00,44.3,25.9,30.13,WNW,297,3.0,3.0,48,0.00,,,0.00,VWS V12.07,2013-04-05 11:45:00,
2013-04-05 07:00:00,44.3,25.9,30.13,WNW,297,3.0,3.0,48,0.00,,,0.00,VWS V12.07,2013-04-05 12:00:00,
2013-04-05 07:30:00,44.3,25.9,30.14,WNW,297,3.0,3.0,48,0.00,,,0.00,VWS V12.07,2013-04-05 12:30:00,
2013-04-05 07:45:00,44.3,25.9,30.11,WNW,297,3.0,3.0,48,0.00,,,0.00,VWS V12.07,2013-04-05 12:45:00,
2013-04-05 08:00:00,44.3,25.9,30.12,WNW,297,3.0,3.0,48,0.00,,,0.00,VWS V12.07,2013-04-05 13:00:00,
2013-04-05 08:30:00,44.3,25.9,30.12,WNW,297,3.0,3.0,48,0.00,,,0.00,VWS V12.07,2013-04-05 13:30:00,
2013-04-05 08:45:00,44.3,25.9,30.12,WNW,297,3.0,3.0,48,0.00,,,0.00,VWS V12.07,2013-04-05 13:45:00,
2013-04-05 09:00:00,44.3,25.9,30.12,WNW,297,3.0,3.0,48,0.00,,,0.00,VWS V12.07,2013-04-05 14:00:00,
2013-04-05 09:30:00,44.3,25.9,30.13,WNW,297,3.0,3.0,48,0.00,,,0.00,VWS V12.07,2013-04-05 14:30:00,
2013-04-05 09:45:00,44.3,25.9,30.12,WNW,297,3.0,3.0,48,0.00,,,0.00,VWS V12.07,2013-04-05 14:45:00,
2013-04-05 10:00:00,36.2,14.2,30.12,NE,55,2.0,9.0,40,0.00,,,0.00,VWS V12.07,2013-04-05 15:00:00,
2013-04-05 10:30:00,38.2,13.0,30.16,NNE,23,4.0,11.0,35,0.00,,,0.00,VWS V12.07,2013-04-05 15:30:00,
2013-04-05 10:45:00,37.6,13.7,30.16,East,93,2.0,14.0,37,0.00,,,0.00,VWS V12.07,2013-04-05 15:45:00,
2013-04-05 11:00:00,40.3,13.5,30.15,NNE,30,3.0,14.0,33,0.00,,,0.00,VWS V12.07,2013-04-05 16:00:00,
2013-04-05 11:30:00,38.0,14.1,30.15,SSW,203,2.0,12.0,37,0.00,,,0.00,VWS V12.07,2013-04-05 16:30:00,
2013-04-05 11:45:00,38.6,14.0,30.15,South,181,5.0,13.0,36,0.00,,,0.00,VWS V12.07,2013-04-05 16:45:00,
2013-04-05 12:00:00,39.9,14.5,30.15,SSE,162,5.0,13.0,35,0.00,,,0.00,VWS V12.07,2013-04-05 17:00:00,
2013-04-05 12:30:00,38.9,14.2,30.14,SSE,160,7.0,12.0,36,0.00,,,0.00,VWS V12.07,2013-04-05 17:30:00,
2013-04-05 12:45:00,39.8,14.4,30.14,SSE,153,6.0,14.0,35,0.00,,,0.00,VWS V12.07,2013-04-05 17:45:00,
2013-04-05 13:00:00,40.6,14.4,30.13,ESE,122,2.0,14.0,34,0.00,,,0.00,VWS V12.07,2013-04-05 18:00:00,
2013-04-05 13:15:00,40.5,15.0,30.12,East,82,5.0,10.0,35,0.00,,,0.00,VWS V12.07,2013-04-05 18:15:00,
2013-04-05 13:30:00,40.3,13.5,30.12,SE,134,6.0,15.0,33,0.00,,,0.00,VWS V12.07,2013-04-05 18:30:00,
2013-04-05 13:45:00,41.5,12.4,30.12,ESE,120,11.0,14.0,30,0.00,,,0.00,VWS V12.07,2013-04-05 18:45:00,
2013-04-05 14:00:00,40.6,12.4,30.11,SE,124,6.0,14.0,31,0.00,,,0.00,VWS V12.07,2013-04-05 19:00:00,
2013-04-05 14:15:00,40.8,12.5,30.10,East,85,2.0,18.0,31,0.00,,,0.00,VWS V12.07,2013-04-05 19:15:00,
2013-04-05 14:30:00,41.1,11.3,30.08,NE,37,3.0,18.0,29,0.00,,,0.00,VWS V12.07,2013-04-05 19:30:00,
2013-04-05 14:45:00,40.9,13.3,30.08,ESE,114,5.0,11.0,32,0.00,,,0.00,VWS V12.07,2013-04-05 19:45:00,
2013-04-05 15:00:00,40.6,13.8,30.08,ESE,108,5.0,12.0,33,0.00,,,0.00,VWS V12.07,2013-04-05 20:00:00,
2013-04-05 15:15:00,41.2,14.3,30.08,ENE,77,2.0,10.0,33,0.00,,,0.00,VWS V12.07,2013-04-05 20:15:00,
2013-04-05 15:30:00,41.8,14.8,30.08,NE,55,0.0,10.0,33,0.00,,,0.00,VWS V12.07,2013-04-05 20:30:00,
2013-04-05 15:45:00,41.8,13.4,30.07,ESE,102,0.0,6.0,31,0.00,,,0.00,VWS V12.07,2013-04-05 20:45:00,
2013-04-05 16:00:00,41.6,13.2,30.08,SSE,165,3.0,9.0,31,0.00,,,0.00,VWS V12.07,2013-04-05 21:00:00,
2013-04-05 16:15:00,41.8,12.7,30.07,ENE,77,2.0,6.0,30,0.00,,,0.00,VWS V12.07,2013-04-05 21:15:00,
2013-04-05 16:30:00,41.6,13.2,30.06,ESE,112,3.0,7.0,31,0.00,,,0.00,VWS V12.07,2013-04-05 21:30:00,
2013-04-05 16:45:00,41.6,13.9,30.05,ESE,115,2.0,9.0,32,0.00,,,0.00,VWS V12.07,2013-04-05 21:45:00,
2013-04-05 17:00:00,41.8,14.1,30.05,SE,125,2.0,9.0,32,0.00,,,0.00,VWS V12.07,2013-04-05 22:00:00,
2013-04-05 17:30:00,41.8,13.4,30.03,ESE,107,3.0,9.0,31,0.00,,,0.00,VWS V12.07,2013-04-05 22:30:00,
2013-04-05 17:45:00,42.3,14.6,30.02,East,96,0.0,6.0,32,0.00,,,0.00,VWS V12.07,2013-04-05 22:45:00,
2013-04-05 18:00:00,42.2,15.2,30.01,East,85,0.0,6.0,33,0.00,,,0.00,VWS V12.07,2013-04-05 23:00:00,
2013-04-05 18:30:00,41.2,18.7,30.00,NE,56,2.0,6.0,40,0.00,,,0.00,VWS V12.07,2013-04-05 23:30:00,
2013-04-05 18:45:00,40.3,19.0,30.00,ESE,110,4.0,8.0,42,0.00,,,0.00,VWS V12.07,2013-04-05 23:45:00,
2013-04-05 19:00:00,39.9,19.8,29.99,ENE,63,4.0,8.0,44,0.00,,,0.00,VWS V12.07,2013-04-06 00:00:00,
2013-04-05 19:30:00,39.9,19.8,29.95,ENE,63,4.0,4.0,44,0.00,,,0.00,VWS V12.07,2013-04-06 00:30:00,
2013-04-05 19:45:00,39.9,19.8,29.94,ENE,63,4.0,4.0,44,0.00,,,0.00,VWS V12.07,2013-04-06 00:45:00,
2013-04-05 20:00:00,39.9,19.8,29.94,ENE,63,4.0,4.0,44,0.00,,,0.00,VWS V12.07,2013-04-06 01:00:00,
2013-04-05 20:30:00,39.9,19.8,29.95,ENE,63,4.0,4.0,44,0.00,,,0.00,VWS V12.07,2013-04-06 01:30:00,
2013-04-05 20:45:00,39.9,19.8,29.95,ENE,63,4.0,4.0,44,0.00,,,0.00,VWS V12.07,2013-04-06 01:45:00,
2013-04-05 21:00:00,39.9,19.8,29.96,ENE,63,4.0,4.0,44,0.00,,,0.00,VWS V12.07,2013-04-06 02:00:00,
2013-04-05 21:15:00,39.9,19.8,29.97,ENE,63,4.0,4.0,44,0.00,,,0.00,VWS V12.07,2013-04-06 02:15:00,
2013-04-05 21:30:00,39.9,19.8,29.97,ENE,63,4.0,4.0,44,0.00,,,0.00,VWS V12.07,2013-04-06 02:30:00,
2013-04-05 21:45:00,39.9,19.8,29.96,ENE,63,4.0,4.0,44,0.00,,,0.00,VWS V12.07,2013-04-06 02:45:00,
2013-04-05 22:00:00,39.9,19.8,30.00,ENE,63,4.0,4.0,44,0.00,,,0.00,VWS V12.07,2013-04-06 03:00:00,
2013-04-05 22:30:00,39.9,19.8,30.00,ENE,63,4.0,4.0,44,0.00,,,0.00,VWS V12.07,2013-04-06 03:30:00,
2013-04-05 22:45:00,39.9,19.8,29.99,ENE,63,4.0,4.0,44,0.00,,,0.00,VWS V12.07,2013-04-06 03:45:00,
2013-04-05 23:00:00,39.9,19.8,29.97,ENE,63,4.0,4.0,44,0.00,,,0.00,VWS V12.07,2013-04-06 04:00:00,
2013-04-05 23:30:00,39.9,19.8,29.94,ENE,63,4.0,4.0,44,0.00,,,0.00,VWS V12.07,2013-04-06 04:30:00,
2013-04-05 23:45:00,39.9,19.8,29.94,ENE,63,4.0,4.0,44,0.00,,,0.00,VWS V12.07,2013-04-06 04:45:00,